Time;durP1;ratioP1;P1;durP2;ratioP2;P2;SDS_P1;SDS_P2;PMS_P1;PMS_P2;Temp;Humidity;BMP_temperature;BMP_pressure;BME280_temperature;BME280_humidity;BME280_pressure;Samples;Min_cycle;Max_cycle;Signal;HPM_P1;HPM_P2
2020/12/22 00:01:24;;;;;;;9.68;4.20;;;;;;;;;;4960231;28;20058;-60
2020/12/22 00:03:51;;;;;;;8.82;3.90;;;;;;;;;;4942694;28;20048;-60
2020/12/22 00:06:24;;;;;;;7.70;3.90;;;;;;;;;;4943010;28;20040;-60
2020/12/22 00:08:50;;;;;;;5.80;3.22;;;;;;;;;;4956171;28;20162;-60
2020/12/22 00:11:17;;;;;;;6.90;3.42;;;;;;;;;;4959656;28;20068;-61
2020/12/22 00:13:43;;;;;;;6.57;3.65;;;;;;;;;;4957233;28;20058;-58
2020/12/22 00:16:09;;;;;;;6.95;3.95;;;;;;;;;;4960971;28;20062;-59
2020/12/22 00:18:36;;;;;;;11.65;3.50;;;;;;;;;;4954851;28;20102;-58
2020/12/22 00:21:03;;;;;;;8.20;3.53;;;;;;;;;;4960314;28;20050;-59
2020/12/22 00:23:29;;;;;;;4.93;2.72;;;;;;;;;;4955928;28;20586;-61
2020/12/22 00:25:55;;;;;;;6.07;3.45;;;;;;;;;;4944913;28;20047;-59
2020/12/22 00:28:21;;;;;;;5.15;2.90;;;;;;;;;;4969884;28;20047;-61
2020/12/22 00:30:49;;;;;;;5.07;2.63;;;;;;;;;;4943278;28;20129;-58
2020/12/22 00:33:15;;;;;;;6.53;2.58;;;;;;;;;;4960118;28;20071;-59
2020/12/22 00:35:41;;;;;;;5.40;2.67;;;;;;;;;;4958453;28;20059;-58
2020/12/22 00:38:08;;;;;;;5.30;2.90;;;;;;;;;;4962948;28;20050;-59
2020/12/22 00:40:34;;;;;;;8.23;2.95;;;;;;;;;;4956188;28;20080;-58
2020/12/22 00:43:02;;;;;;;5.40;3.00;;;;;;;;;;4943587;28;20039;-60
2020/12/22 00:45:29;;;;;;;4.10;2.25;;;;;;;;;;4960774;28;20062;-61
2020/12/22 00:47:55;;;;;;;6.25;2.90;;;;;;;;;;4949677;28;20053;-59
2020/12/22 00:50:22;;;;;;;4.65;2.58;;;;;;;;;;4951677;28;20062;-59
2020/12/22 00:52:48;;;;;;;3.60;2.05;;;;;;;;;;4965622;28;20061;-60
2020/12/22 00:55:15;;;;;;;3.08;1.98;;;;;;;;;;4961809;28;20050;-59
2020/12/22 00:57:42;;;;;;;5.03;2.70;;;;;;;;;;4980099;28;20055;-59
2020/12/22 01:00:11;;;;;;;3.40;2.03;;;;;;;;;;4961422;28;20050;-59
2020/12/22 01:02:37;;;;;;;4.20;2.53;;;;;;;;;;4966064;28;20059;-59
2020/12/22 01:05:04;;;;;;;3.33;2.10;;;;;;;;;;4960593;28;20063;-59
2020/12/22 01:07:30;;;;;;;3.42;1.80;;;;;;;;;;4966957;28;20035;-59
2020/12/22 01:09:56;;;;;;;4.97;1.95;;;;;;;;;;4980145;28;20035;-60
2020/12/22 01:12:23;;;;;;;3.67;1.92;;;;;;;;;;4957487;28;20202;-61
2020/12/22 01:14:54;;;;;;;4.68;2.20;;;;;;;;;;4927400;28;20044;-59
2020/12/22 01:17:20;;;;;;;5.03;2.30;;;;;;;;;;4939752;28;20071;-60
2020/12/22 01:19:46;;;;;;;3.65;1.92;;;;;;;;;;4946014;29;20051;-59
2020/12/22 01:22:12;;;;;;;2.13;1.35;;;;;;;;;;4942619;28;20047;-59
2020/12/22 01:24:38;;;;;;;2.90;1.60;;;;;;;;;;4961393;28;20143;-59
2020/12/22 01:27:05;;;;;;;4.47;1.58;;;;;;;;;;4942713;28;20039;-58
2020/12/22 01:29:32;;;;;;;2.50;1.45;;;;;;;;;;4945618;28;20044;-59
2020/12/22 01:31:58;;;;;;;1.85;1.38;;;;;;;;;;4952882;28;20128;-60
2020/12/22 01:34:24;;;;;;;2.70;1.45;;;;;;;;;;4974045;28;20062;-60
2020/12/22 01:36:51;;;;;;;1.90;1.15;;;;;;;;;;4954562;28;20055;-59
2020/12/22 01:39:17;;;;;;;2.35;1.50;;;;;;;;;;4962117;28;20047;-59
2020/12/22 01:41:43;;;;;;;1.85;1.23;;;;;;;;;;4973997;28;20171;-61
2020/12/22 01:44:10;;;;;;;4.20;1.40;;;;;;;;;;4954016;28;20039;-59
2020/12/22 01:46:38;;;;;;;2.05;1.38;;;;;;;;;;4957412;28;20050;-58
2020/12/22 01:49:07;;;;;;;1.60;1.15;;;;;;;;;;4962412;28;20066;-60
2020/12/22 01:51:33;;;;;;;1.80;1.30;;;;;;;;;;4960747;28;20038;-59
2020/12/22 01:54:00;;;;;;;1.98;1.27;;;;;;;;;;4944447;28;20079;-59
2020/12/22 01:56:27;;;;;;;2.70;1.40;;;;;;;;;;4947111;28;20080;-60
2020/12/22 01:58:54;;;;;;;2.08;1.33;;;;;;;;;;4939867;28;20047;-60
2020/12/22 02:01:20;;;;;;;2.22;1.33;;;;;;;;;;4962368;28;20137;-59
2020/12/22 02:03:47;;;;;;;2.03;1.38;;;;;;;;;;4958389;28;20079;-59
2020/12/22 02:06:13;;;;;;;2.63;1.20;;;;;;;;;;4947186;28;20058;-60
2020/12/22 02:08:39;;;;;;;2.17;1.13;;;;;;;;;;4946966;28;20069;-58
2020/12/22 02:11:08;;;;;;;1.92;1.15;;;;;;;;;;4924528;28;20059;-59
2020/12/22 02:13:34;;;;;;;3.85;1.10;;;;;;;;;;4940416;28;20043;-60
2020/12/22 02:16:00;;;;;;;1.65;1.10;;;;;;;;;;4960666;28;20036;-59
2020/12/22 02:18:26;;;;;;;1.00;0.90;;;;;;;;;;4956452;28;20048;-61
2020/12/22 02:20:53;;;;;;;3.70;1.00;;;;;;;;;;4945203;28;20056;-59
2020/12/22 02:23:20;;;;;;;2.80;0.98;;;;;;;;;;4954319;28;20036;-59
2020/12/22 02:25:47;;;;;;;4.32;1.20;;;;;;;;;;4929625;28;20047;-61
2020/12/22 02:28:13;;;;;;;1.10;0.98;;;;;;;;;;4924357;28;20039;-59
2020/12/22 02:30:40;;;;;;;1.67;1.20;;;;;;;;;;4918487;28;20122;-60
2020/12/22 02:33:06;;;;;;;1.63;1.10;;;;;;;;;;4929474;28;20039;-60
2020/12/22 02:35:32;;;;;;;1.33;0.98;;;;;;;;;;4924227;28;20058;-59
2020/12/22 02:37:58;;;;;;;1.35;1.10;;;;;;;;;;4927847;28;20055;-59
2020/12/22 02:40:25;;;;;;;1.90;1.10;;;;;;;;;;4926335;28;20057;-61
2020/12/22 02:42:51;;;;;;;1.20;1.00;;;;;;;;;;4928876;28;20044;-60
2020/12/22 02:45:17;;;;;;;0.90;0.80;;;;;;;;;;4942317;28;20043;-60
2020/12/22 02:47:44;;;;;;;1.15;0.90;;;;;;;;;;4929663;28;20039;-59
2020/12/22 02:50:10;;;;;;;1.08;0.82;;;;;;;;;;4924545;29;20044;-61
2020/12/22 02:52:36;;;;;;;0.70;0.65;;;;;;;;;;4936950;29;20060;-60
2020/12/22 02:55:02;;;;;;;0.70;0.70;;;;;;;;;;4930810;28;20043;-60
2020/12/22 02:57:30;;;;;;;1.27;0.80;;;;;;;;;;4928653;29;20058;-60
2020/12/22 02:59:56;;;;;;;0.70;0.70;;;;;;;;;;4925831;29;20137;-59
2020/12/22 03:02:22;;;;;;;2.13;1.05;;;;;;;;;;4930738;29;20308;-61
2020/12/22 03:04:48;;;;;;;1.30;0.95;;;;;;;;;;4926202;28;20075;-59
2020/12/22 03:07:15;;;;;;;2.03;1.00;;;;;;;;;;4928900;29;20083;-59
2020/12/22 03:09:43;;;;;;;0.80;0.80;;;;;;;;;;4941693;28;20054;-59
2020/12/22 03:12:09;;;;;;;2.63;1.02;;;;;;;;;;4946127;28;20047;-60
2020/12/22 03:14:36;;;;;;;1.10;0.90;;;;;;;;;;4944519;28;20054;-59
2020/12/22 03:17:02;;;;;;;0.82;0.75;;;;;;;;;;4959683;28;20127;-59
2020/12/22 03:19:30;;;;;;;0.68;0.68;;;;;;;;;;4963959;28;20107;-60
2020/12/22 03:21:56;;;;;;;0.80;0.80;;;;;;;;;;4952197;28;20051;-60
2020/12/22 03:24:22;;;;;;;0.95;0.45;;;;;;;;;;4942613;28;20055;-61
2020/12/22 03:26:48;;;;;;;0.80;0.60;;;;;;;;;;4923518;28;20032;-60
2020/12/22 03:29:14;;;;;;;5.30;0.70;;;;;;;;;;4924767;29;20050;-59
2020/12/22 03:31:41;;;;;;;2.30;0.63;;;;;;;;;;4942178;28;20051;-59
2020/12/22 03:34:10;;;;;;;3.70;0.70;;;;;;;;;;4963750;28;20043;-60
2020/12/22 03:36:36;;;;;;;2.28;0.88;;;;;;;;;;4954748;28;20059;-60
2020/12/22 03:39:02;;;;;;;1.10;0.70;;;;;;;;;;4961024;28;20051;-60
2020/12/22 03:41:28;;;;;;;0.70;0.60;;;;;;;;;;4960285;28;20055;-59
2020/12/22 03:43:56;;;;;;;0.52;0.52;;;;;;;;;;4946370;28;20047;-60
2020/12/22 03:46:22;;;;;;;0.50;0.50;;;;;;;;;;4940966;28;20063;-59
2020/12/22 03:48:49;;;;;;;0.40;0.40;;;;;;;;;;4944484;29;20125;-60
2020/12/22 03:51:15;;;;;;;2.08;0.50;;;;;;;;;;4943396;28;20048;-60
2020/12/22 03:53:41;;;;;;;0.68;0.52;;;;;;;;;;4957994;28;20039;-60
2020/12/22 03:56:07;;;;;;;1.83;0.65;;;;;;;;;;4960080;28;20131;-60
2020/12/22 03:58:33;;;;;;;1.55;0.55;;;;;;;;;;4956713;28;20036;-61
2020/12/22 04:01:00;;;;;;;0.82;0.70;;;;;;;;;;4960833;28;20188;-60
2020/12/22 04:03:27;;;;;;;1.63;0.70;;;;;;;;;;4956257;28;20044;-60
2020/12/22 04:05:54;;;;;;;1.13;0.80;;;;;;;;;;4959095;28;20051;-59
2020/12/22 04:08:20;;;;;;;1.05;0.68;;;;;;;;;;4949194;28;20130;-59
2020/12/22 04:10:46;;;;;;;1.35;0.65;;;;;;;;;;4960442;28;20104;-61
2020/12/22 04:13:15;;;;;;;2.78;0.90;;;;;;;;;;4957101;28;20173;-60
2020/12/22 04:15:41;;;;;;;1.38;0.80;;;;;;;;;;4959220;28;20088;-61
2020/12/22 04:18:07;;;;;;;3.53;0.57;;;;;;;;;;4958820;28;20067;-60
2020/12/22 04:20:33;;;;;;;0.50;0.50;;;;;;;;;;4979385;28;20113;-60
2020/12/22 04:23:00;;;;;;;0.98;0.60;;;;;;;;;;4961431;28;20058;-61
2020/12/22 04:25:26;;;;;;;0.95;0.65;;;;;;;;;;4964302;28;20047;-60
2020/12/22 04:27:52;;;;;;;3.45;0.77;;;;;;;;;;4961798;28;20039;-60
2020/12/22 04:30:18;;;;;;;0.77;0.47;;;;;;;;;;4981628;28;20075;-61
2020/12/22 04:32:44;;;;;;;10.40;0.80;;;;;;;;;;4982185;28;20035;-61
2020/12/22 04:35:10;;;;;;;0.65;0.55;;;;;;;;;;4960296;28;20062;-61
2020/12/22 04:37:37;;;;;;;4.03;0.75;;;;;;;;;;4947523;28;20150;-60
2020/12/22 04:40:04;;;;;;;2.83;0.88;;;;;;;;;;4959203;28;20055;-61
2020/12/22 04:42:33;;;;;;;3.25;0.60;;;;;;;;;;4962868;28;20039;-60
2020/12/22 04:44:59;;;;;;;0.93;0.55;;;;;;;;;;4938446;28;20055;-60
2020/12/22 04:47:25;;;;;;;4.68;0.68;;;;;;;;;;4927381;29;20059;-61
2020/12/22 04:49:54;;;;;;;4.70;0.90;;;;;;;;;;4945646;28;20092;-60
2020/12/22 04:52:21;;;;;;;2.33;0.70;;;;;;;;;;4965343;28;20047;-61
2020/12/22 04:54:47;;;;;;;0.50;0.50;;;;;;;;;;4952804;28;20075;-60
2020/12/22 04:57:17;;;;;;;2.03;0.50;;;;;;;;;;4962828;28;20056;-59
2020/12/22 04:59:44;;;;;;;0.88;0.40;;;;;;;;;;4957492;28;20035;-61
2020/12/22 05:02:11;;;;;;;5.13;0.70;;;;;;;;;;4947825;28;20035;-61
2020/12/22 05:04:37;;;;;;;4.00;0.77;;;;;;;;;;4945206;28;20118;-61
2020/12/22 05:07:06;;;;;;;8.40;1.60;;;;;;;;;;4954562;28;20059;-61
2020/12/22 05:09:32;;;;;;;;;;;;;;;;;;4959684;28;20043;-61
2020/12/22 05:12:01;;;;;;;3.33;0.47;;;;;;;;;;4944795;29;19954;-60
2020/12/22 05:14:28;;;;;;;1.25;0.50;;;;;;;;;;4958505;28;20047;-62
2020/12/22 05:16:55;;;;;;;3.50;0.40;;;;;;;;;;4943494;28;20080;-62
2020/12/22 05:19:23;;;;;;;0.45;0.35;;;;;;;;;;4946305;28;20058;-60
2020/12/22 05:21:51;;;;;;;3.67;0.70;;;;;;;;;;4959862;28;20055;-61
2020/12/22 05:24:17;;;;;;;1.55;0.57;;;;;;;;;;4945033;28;20051;-60
2020/12/22 05:26:44;;;;;;;3.30;0.60;;;;;;;;;;4938991;28;20043;-60
2020/12/22 05:29:11;;;;;;;2.10;0.80;;;;;;;;;;4961709;28;20054;-60
2020/12/22 05:31:45;;;;;;;2.42;0.60;;;;;;;;;;4940482;28;20075;-61
2020/12/22 05:34:12;;;;;;;8.98;0.50;;;;;;;;;;4970068;28;20043;-60
2020/12/22 05:36:39;;;;;;;3.20;0.73;;;;;;;;;;4940820;28;20039;-61
2020/12/22 05:39:10;;;;;;;1.92;0.70;;;;;;;;;;4942421;28;20083;-60
2020/12/22 05:41:37;;;;;;;2.78;0.90;;;;;;;;;;4937872;28;20055;-61
2020/12/22 05:44:03;;;;;;;3.10;0.90;;;;;;;;;;4959159;28;20055;-60
2020/12/22 05:46:31;;;;;;;5.28;1.00;;;;;;;;;;4938498;28;20128;-60
2020/12/22 05:49:00;;;;;;;1.55;0.77;;;;;;;;;;4946719;28;20046;-60
2020/12/22 05:51:26;;;;;;;;;;;;;;;;;;4938833;28;20096;-61
2020/12/22 05:53:53;;;;;;;1.85;0.50;;;;;;;;;;4970685;28;19952;-60
2020/12/22 05:56:21;;;;;;;6.05;0.60;;;;;;;;;;4956171;28;20051;-61
2020/12/22 05:58:48;;;;;;;6.47;0.80;;;;;;;;;;4960554;28;20218;-60
2020/12/22 06:01:27;;;;;;;3.85;0.65;;;;;;;;;;4947304;28;20070;-60
2020/12/22 06:03:53;;;;;;;9.80;0.93;;;;;;;;;;4943597;29;20047;-60
2020/12/22 06:06:20;;;;;;;8.57;0.77;;;;;;;;;;4946121;28;20039;-60
2020/12/22 06:08:49;;;;;;;4.20;0.93;;;;;;;;;;4938510;28;20047;-60
2020/12/22 06:11:15;;;;;;;;;;;;;;;;;;4946023;28;20125;-60
2020/12/22 06:13:41;;;;;;;2.83;0.90;;;;;;;;;;4955636;28;19939;-59
2020/12/22 06:16:14;;;;;;;8.30;1.00;;;;;;;;;;4944827;29;20067;-61
2020/12/22 06:18:40;;;;;;;3.30;1.08;;;;;;;;;;4941742;28;20133;-60
2020/12/22 06:21:06;;;;;;;5.18;1.15;;;;;;;;;;4959686;28;20051;-60
2020/12/22 06:23:34;;;;;;;8.93;1.90;;;;;;;;;;4957673;28;20134;-61
2020/12/22 06:26:03;;;;;;;4.38;1.58;;;;;;;;;;4959083;28;20091;-61
2020/12/22 06:28:30;;;;;;;5.28;1.25;;;;;;;;;;4940763;28;20056;-60
2020/12/22 06:30:56;;;;;;;6.93;1.67;;;;;;;;;;4960424;28;20044;-60
2020/12/22 06:33:23;;;;;;;4.85;1.40;;;;;;;;;;4937086;28;20047;-61
2020/12/22 06:36:00;;;;;;;7.53;1.42;;;;;;;;;;4961018;28;20114;-61
2020/12/22 06:38:45;;;;;;;10.63;1.52;;;;;;;;;;4941313;28;20047;-60
2020/12/22 06:41:24;;;;;;;9.20;1.38;;;;;;;;;;4975249;28;20074;-60
2020/12/22 06:43:50;;;;;;;5.57;1.25;;;;;;;;;;4954798;28;20048;-61
2020/12/22 06:46:32;;;;;;;1.70;0.65;;;;;;;;;;4944338;28;20047;-61
2020/12/22 06:48:58;;;;;;;2.90;0.68;;;;;;;;;;4940435;28;20043;-60
2020/12/22 06:51:27;;;;;;;2.55;0.75;;;;;;;;;;4942171;28;20044;-61
2020/12/22 06:53:53;;;;;;;4.35;0.70;;;;;;;;;;4947129;28;20077;-60
2020/12/22 06:56:39;;;;;;;4.93;0.90;;;;;;;;;;4963558;28;20047;-60
2020/12/22 06:59:06;;;;;;;5.32;0.80;;;;;;;;;;4974825;28;20126;-60
2020/12/22 07:01:32;;;;;;;6.75;0.90;;;;;;;;;;4961323;28;20043;-60
2020/12/22 07:04:11;;;;;;;13.02;1.05;;;;;;;;;;4942441;28;20083;-60
2020/12/22 07:06:57;;;;;;;11.73;1.10;;;;;;;;;;4961032;28;20043;-61
2020/12/22 07:09:24;;;;;;;9.45;1.95;;;;;;;;;;4942783;28;20122;-60
2020/12/22 07:11:52;;;;;;;9.27;2.92;;;;;;;;;;4943912;28;20054;-60
2020/12/22 07:14:18;;;;;;;9.43;1.00;;;;;;;;;;4941763;28;20039;-60
2020/12/22 07:16:51;;;;;;;6.72;0.82;;;;;;;;;;4946051;28;20137;-60
2020/12/22 07:19:21;;;;;;;6.25;1.17;;;;;;;;;;4958742;28;20063;-60
2020/12/22 07:21:47;;;;;;;1.77;0.80;;;;;;;;;;4941233;28;20056;-60
2020/12/22 07:24:13;;;;;;;2.67;0.57;;;;;;;;;;4945097;28;20035;-61
2020/12/22 07:26:41;;;;;;;11.80;0.82;;;;;;;;;;4922990;29;20137;-61
2020/12/22 07:29:08;;;;;;;2.63;0.60;;;;;;;;;;4943858;28;20094;-60
2020/12/22 07:31:34;;;;;;;2.83;0.63;;;;;;;;;;4915342;29;20114;-60
2020/12/22 07:34:04;;;;;;;5.38;0.63;;;;;;;;;;4928412;29;20056;-60
2020/12/22 07:36:30;;;;;;;4.90;0.80;;;;;;;;;;4952962;28;20035;-60
2020/12/22 07:39:09;;;;;;;3.13;0.60;;;;;;;;;;4945705;28;20069;-61
2020/12/22 07:41:35;;;;;;;4.10;0.63;;;;;;;;;;4942383;28;20094;-60
2020/12/22 07:44:09;;;;;;;8.88;0.68;;;;;;;;;;4944862;28;20039;-60
2020/12/22 07:46:35;;;;;;;7.05;0.93;;;;;;;;;;4940918;28;20039;-60
2020/12/22 07:49:02;;;;;;;2.72;0.55;;;;;;;;;;4927258;29;20043;-60
2020/12/22 07:51:28;;;;;;;2.42;0.50;;;;;;;;;;4942902;28;20027;-61
2020/12/22 07:53:59;;;;;;;1.75;0.52;;;;;;;;;;4954464;28;20102;-60
2020/12/22 07:56:26;;;;;;;9.75;0.90;;;;;;;;;;4926462;29;20091;-59
2020/12/22 07:58:53;;;;;;;9.43;0.88;;;;;;;;;;4931032;29;20039;-60
2020/12/22 08:01:21;;;;;;;6.05;0.65;;;;;;;;;;4927378;28;20130;-61
2020/12/22 08:03:47;;;;;;;7.85;0.85;;;;;;;;;;4932834;29;20047;-60
2020/12/22 08:06:14;;;;;;;12.93;1.15;;;;;;;;;;4945616;28;20062;-62
2020/12/22 08:08:40;;;;;;;9.25;1.05;;;;;;;;;;4948551;28;20051;-60
2020/12/22 08:11:06;;;;;;;4.55;0.75;;;;;;;;;;4947486;28;20052;-60
2020/12/22 08:13:35;;;;;;;11.48;1.05;;;;;;;;;;4925873;29;20054;-61
2020/12/22 08:16:02;;;;;;;7.65;1.05;;;;;;;;;;4946398;28;20046;-60
2020/12/22 08:18:30;;;;;;;14.60;1.20;;;;;;;;;;4940572;28;20046;-59
2020/12/22 08:20:56;;;;;;;7.68;0.70;;;;;;;;;;4964823;28;20046;-61
2020/12/22 08:23:23;;;;;;;7.38;0.80;;;;;;;;;;4961735;28;20039;-60
2020/12/22 08:25:49;;;;;;;12.07;2.33;;;;;;;;;;4981129;28;20090;-60
2020/12/22 08:28:22;;;;;;;17.50;3.47;;;;;;;;;;4949931;28;20047;-60
2020/12/22 08:30:48;;;;;;;9.35;0.95;;;;;;;;;;4945501;28;20051;-61
2020/12/22 08:33:17;;;;;;;9.55;0.77;;;;;;;;;;4933896;28;20097;-61
2020/12/22 08:35:45;;;;;;;11.15;0.90;;;;;;;;;;4962731;28;20043;-60
2020/12/22 08:38:20;;;;;;;8.27;0.90;;;;;;;;;;4941379;28;20092;-61
2020/12/22 08:40:46;;;;;;;11.05;0.90;;;;;;;;;;4947023;29;20039;-61
2020/12/22 08:43:12;;;;;;;8.68;0.70;;;;;;;;;;4943239;28;20043;-61
2020/12/22 08:45:41;;;;;;;6.80;0.80;;;;;;;;;;4963109;28;20063;-61
2020/12/22 08:48:07;;;;;;;5.68;0.98;;;;;;;;;;4959104;28;20061;-60
2020/12/22 08:50:46;;;;;;;9.93;1.38;;;;;;;;;;4959560;28;20047;-61
2020/12/22 08:53:13;;;;;;;15.70;0.88;;;;;;;;;;4925760;28;20044;-60
2020/12/22 08:55:39;;;;;;;11.95;1.05;;;;;;;;;;4947819;28;20039;-59
2020/12/22 08:58:05;;;;;;;9.60;0.75;;;;;;;;;;4947185;28;20050;-61
2020/12/22 09:00:31;;;;;;;10.65;0.88;;;;;;;;;;4942635;28;20051;-62
2020/12/22 09:02:57;;;;;;;3.97;0.63;;;;;;;;;;4963071;28;20079;-60
2020/12/22 09:05:28;;;;;;;9.95;0.95;;;;;;;;;;4959956;28;20048;-61
2020/12/22 09:07:58;;;;;;;4.90;0.80;;;;;;;;;;4961071;28;20050;-61
2020/12/22 09:10:24;;;;;;;20.15;1.00;;;;;;;;;;4958536;28;20068;-61
2020/12/22 09:12:50;;;;;;;13.63;0.95;;;;;;;;;;4946642;28;20061;-61
2020/12/22 09:15:16;;;;;;;8.82;1.30;;;;;;;;;;4947448;28;20052;-61
2020/12/22 09:17:42;;;;;;;11.05;1.05;;;;;;;;;;4927474;28;20076;-60
2020/12/22 09:20:09;;;;;;;12.32;1.13;;;;;;;;;;4924418;28;20044;-61
2020/12/22 09:22:36;;;;;;;7.80;1.08;;;;;;;;;;4927879;29;20067;-60
2020/12/22 09:25:07;;;;;;;8.50;1.10;;;;;;;;;;4951418;28;20050;-60
2020/12/22 09:27:34;;;;;;;15.38;1.10;;;;;;;;;;4965338;28;20042;-60
2020/12/22 09:30:00;;;;;;;13.70;1.02;;;;;;;;;;4957204;28;20148;-60
2020/12/22 09:32:27;;;;;;;14.27;1.58;;;;;;;;;;4947264;28;20121;-61
2020/12/22 09:34:53;;;;;;;8.82;0.85;;;;;;;;;;4944325;28;20043;-60
2020/12/22 09:37:22;;;;;;;10.02;1.20;;;;;;;;;;4960889;28;20047;-60
2020/12/22 09:39:50;;;;;;;;;;;;;;;;;;4958942;28;20043;-60
2020/12/22 09:42:17;;;;;;;7.13;1.37;;;;;;;;;;4956401;28;19919;-61
2020/12/22 09:44:43;;;;;;;24.52;1.48;;;;;;;;;;4928530;28;20310;-62
2020/12/22 09:47:10;;;;;;;11.13;1.00;;;;;;;;;;4943033;28;20047;-60
2020/12/22 09:49:36;;;;;;;12.57;1.25;;;;;;;;;;4944316;28;20051;-60
2020/12/22 09:52:02;;;;;;;7.20;1.10;;;;;;;;;;4972393;28;20050;-60
2020/12/22 09:54:28;;;;;;;15.63;1.27;;;;;;;;;;4980923;28;20067;-60
2020/12/22 09:56:55;;;;;;;21.55;3.00;;;;;;;;;;4965660;28;20047;-60
2020/12/22 09:59:22;;;;;;;20.70;3.20;;;;;;;;;;4961121;28;20054;-59
2020/12/22 10:01:51;;;;;;;5.72;1.20;;;;;;;;;;4959484;28;20039;-60
2020/12/22 10:04:18;;;;;;;13.90;1.05;;;;;;;;;;4961246;28;20051;-60
2020/12/22 10:06:44;;;;;;;9.82;1.20;;;;;;;;;;4974376;28;20042;-61
2020/12/22 10:09:11;;;;;;;12.10;1.20;;;;;;;;;;4951252;28;20055;-61
2020/12/22 10:11:38;;;;;;;9.55;1.10;;;;;;;;;;4932201;28;20043;-61
2020/12/22 10:14:04;;;;;;;13.02;1.08;;;;;;;;;;4979711;28;20039;-60
2020/12/22 10:16:34;;;;;;;9.38;0.82;;;;;;;;;;4975809;28;20054;-60
2020/12/22 10:19:03;;;;;;;8.07;1.13;;;;;;;;;;4963327;28;20043;-60
2020/12/22 10:21:31;;;;;;;14.73;1.25;;;;;;;;;;4963669;28;20050;-59
2020/12/22 10:23:59;;;;;;;9.68;1.13;;;;;;;;;;4981332;28;20047;-59
2020/12/22 10:26:27;;;;;;;19.73;1.85;;;;;;;;;;4964474;28;20046;-59
2020/12/22 10:28:54;;;;;;;16.67;1.58;;;;;;;;;;4944267;28;20055;-60
2020/12/22 10:31:20;;;;;;;6.78;1.30;;;;;;;;;;4960122;28;20028;-61
2020/12/22 10:33:55;;;;;;;15.77;1.63;;;;;;;;;;4957746;28;20047;-61
2020/12/22 10:36:22;;;;;;;15.25;1.85;;;;;;;;;;4958379;28;20051;-60
2020/12/22 10:38:49;;;;;;;5.53;1.40;;;;;;;;;;4941880;28;20043;-62
2020/12/22 10:41:15;;;;;;;8.05;1.50;;;;;;;;;;4958999;28;20057;-62
2020/12/22 10:43:41;;;;;;;22.98;3.50;;;;;;;;;;4929109;28;20039;-60
2020/12/22 10:46:09;;;;;;;19.20;3.90;;;;;;;;;;4926516;28;20099;-60
2020/12/22 10:48:36;;;;;;;10.60;2.33;;;;;;;;;;4946874;28;20039;-61
2020/12/22 10:51:03;;;;;;;11.07;1.95;;;;;;;;;;4946304;28;20040;-60
2020/12/22 10:53:29;;;;;;;13.35;2.22;;;;;;;;;;4948863;28;20060;-60
2020/12/22 10:55:55;;;;;;;21.45;2.90;;;;;;;;;;4961011;28;20040;-61
2020/12/22 10:58:21;;;;;;;13.00;2.22;;;;;;;;;;4957788;28;20118;-60
2020/12/22 11:00:48;;;;;;;13.77;2.30;;;;;;;;;;4948399;28;20048;-60
2020/12/22 11:03:19;;;;;;;12.93;2.00;;;;;;;;;;4958457;28;20062;-61
2020/12/22 11:08:33;;;;;;;4.45;1.13;;;;;;;;;;4959553;28;20035;-61
2020/12/22 11:10:59;;;;;;;6.30;1.00;;;;;;;;;;4980118;28;20035;-62
2020/12/22 11:13:27;;;;;;;3.85;0.93;;;;;;;;;;4959331;28;20062;-62
2020/12/22 11:15:53;;;;;;;5.37;1.03;;;;;;;;;;4944247;28;20083;-61
2020/12/22 11:18:19;;;;;;;3.88;0.70;;;;;;;;;;4959559;28;20278;-60
2020/12/22 11:20:45;;;;;;;6.90;0.93;;;;;;;;;;4943557;28;20110;-61
2020/12/22 11:23:11;;;;;;;4.15;0.80;;;;;;;;;;4954546;28;20143;-61
2020/12/22 11:25:39;;;;;;;6.78;0.95;;;;;;;;;;4951171;28;20047;-61
2020/12/22 11:28:05;;;;;;;1.63;0.70;;;;;;;;;;4945332;28;20122;-61
2020/12/22 11:30:31;;;;;;;11.05;1.17;;;;;;;;;;4941913;28;20035;-61
2020/12/22 11:32:57;;;;;;;2.28;0.70;;;;;;;;;;4960947;28;20059;-60
2020/12/22 11:35:25;;;;;;;4.07;0.80;;;;;;;;;;4958150;28;20039;-60
2020/12/22 11:37:51;;;;;;;1.43;0.70;;;;;;;;;;4943958;29;20049;-61
2020/12/22 11:40:19;;;;;;;4.32;0.68;;;;;;;;;;4942601;28;20058;-60
2020/12/22 11:42:46;;;;;;;2.90;0.70;;;;;;;;;;4946091;28;20035;-60
2020/12/22 11:45:12;;;;;;;6.97;0.70;;;;;;;;;;4943724;28;20044;-61
2020/12/22 11:47:39;;;;;;;9.35;1.90;;;;;;;;;;4944436;29;20054;-61
2020/12/22 11:50:05;;;;;;;2.75;1.02;;;;;;;;;;4940812;28;20074;-62
2020/12/22 11:52:32;;;;;;;6.65;1.15;;;;;;;;;;4944291;29;20068;-61
2020/12/22 11:54:59;;;;;;;5.28;1.63;;;;;;;;;;4960790;28;20054;-60
2020/12/22 11:57:26;;;;;;;5.28;1.65;;;;;;;;;;4957315;28;20039;-61
2020/12/22 11:59:53;;;;;;;4.55;1.77;;;;;;;;;;4960234;28;20059;-61
2020/12/22 12:02:19;;;;;;;6.13;1.67;;;;;;;;;;4941177;28;20054;-61
2020/12/22 12:04:45;;;;;;;3.88;1.55;;;;;;;;;;4920247;29;20035;-61
2020/12/22 12:07:12;;;;;;;3.85;1.70;;;;;;;;;;4925476;28;20050;-61
2020/12/22 12:09:38;;;;;;;5.70;1.80;;;;;;;;;;4945253;28;20043;-62
2020/12/22 12:12:04;;;;;;;7.28;1.50;;;;;;;;;;4957368;28;20043;-61
2020/12/22 12:14:30;;;;;;;6.55;1.60;;;;;;;;;;4944969;28;20054;-61
2020/12/22 12:16:58;;;;;;;6.28;1.55;;;;;;;;;;4941983;28;20047;-60
2020/12/22 12:19:26;;;;;;;4.55;1.58;;;;;;;;;;4945909;28;20058;-60
2020/12/22 12:21:55;;;;;;;5.50;2.00;;;;;;;;;;4946502;28;20044;-59
2020/12/22 12:24:21;;;;;;;12.38;2.90;;;;;;;;;;4958872;28;20046;-59
2020/12/22 12:26:48;;;;;;;5.82;1.70;;;;;;;;;;4956894;28;20047;-60
2020/12/22 12:29:16;;;;;;;10.57;2.30;;;;;;;;;;4944427;28;20032;-60
2020/12/22 12:31:42;;;;;;;6.85;1.90;;;;;;;;;;4960591;28;20049;-60
2020/12/22 12:34:09;;;;;;;10.15;2.63;;;;;;;;;;4923730;28;20040;-60
2020/12/22 12:36:35;;;;;;;5.32;1.77;;;;;;;;;;4924728;28;20048;-60
2020/12/22 12:39:02;;;;;;;9.43;2.22;;;;;;;;;;4957643;28;20043;-59
2020/12/22 12:41:28;;;;;;;11.50;2.53;;;;;;;;;;4975421;28;20118;-59
2020/12/22 12:43:54;;;;;;;10.40;3.05;;;;;;;;;;4973180;28;20059;-61
2020/12/22 12:46:21;;;;;;;16.05;2.50;;;;;;;;;;4980688;28;20057;-60
2020/12/22 12:48:47;;;;;;;8.65;2.17;;;;;;;;;;4961052;28;20151;-61
2020/12/22 12:51:14;;;;;;;7.38;2.38;;;;;;;;;;4927316;29;20054;-61
2020/12/22 12:53:40;;;;;;;11.10;2.30;;;;;;;;;;4931228;28;20039;-61
2020/12/22 12:56:11;;;;;;;14.15;2.63;;;;;;;;;;4935489;29;20040;-60
2020/12/22 12:58:40;;;;;;;17.02;2.42;;;;;;;;;;4946094;28;20038;-61
2020/12/22 13:01:10;;;;;;;8.00;2.58;;;;;;;;;;4979428;28;20102;-60
2020/12/22 13:03:37;;;;;;;10.27;2.47;;;;;;;;;;4943554;28;20043;-60
2020/12/22 13:06:06;;;;;;;19.15;5.13;;;;;;;;;;4959871;28;20056;-60
2020/12/22 13:08:33;;;;;;;17.52;5.65;;;;;;;;;;4944553;28;20043;-60
2020/12/22 13:10:59;;;;;;;20.27;5.55;;;;;;;;;;4981286;28;20037;-60
2020/12/22 13:13:25;;;;;;;18.30;3.67;;;;;;;;;;4959705;28;20117;-60
2020/12/22 13:15:51;;;;;;;16.67;3.40;;;;;;;;;;4961030;28;20091;-61
2020/12/22 13:18:17;;;;;;;17.13;3.47;;;;;;;;;;4945241;28;20032;-61
2020/12/22 13:20:44;;;;;;;17.02;2.88;;;;;;;;;;4958662;28;20036;-61
2020/12/22 13:23:12;;;;;;;14.23;3.70;;;;;;;;;;4961131;28;20063;-61
2020/12/22 13:25:38;;;;;;;;;;;;;;;;;;4957908;28;20094;-60
2020/12/22 13:28:08;;;;;;;10.55;2.63;;;;;;;;;;4961065;28;19918;-62
2020/12/22 13:30:34;;;;;;;19.40;3.08;;;;;;;;;;4943315;28;20078;-60
2020/12/22 13:33:00;;;;;;;15.15;2.95;;;;;;;;;;4946482;28;20132;-61
2020/12/22 13:35:27;;;;;;;12.27;2.67;;;;;;;;;;4957307;28;20051;-61
2020/12/22 13:37:53;;;;;;;17.98;3.08;;;;;;;;;;4962444;28;20044;-60
2020/12/22 13:40:19;;;;;;;12.10;2.50;;;;;;;;;;4944066;28;20051;-61
2020/12/22 13:42:46;;;;;;;18.23;3.00;;;;;;;;;;4962367;28;20040;-61
2020/12/22 13:45:13;;;;;;;12.20;2.58;;;;;;;;;;4952395;28;20048;-61
2020/12/22 13:47:40;;;;;;;12.40;2.88;;;;;;;;;;4942331;28;20059;-61
2020/12/22 13:50:10;;;;;;;11.73;2.97;;;;;;;;;;4933192;28;20047;-61
2020/12/22 13:52:36;;;;;;;11.18;3.10;;;;;;;;;;4966234;28;20083;-60
2020/12/22 13:55:03;;;;;;;23.65;3.13;;;;;;;;;;4962041;28;20043;-62
2020/12/22 13:57:33;;;;;;;9.63;2.50;;;;;;;;;;4981332;28;20043;-61
2020/12/22 14:00:07;;;;;;;17.25;5.53;;;;;;;;;;4960793;28;20051;-61
2020/12/22 14:02:34;;;;;;;24.30;5.50;;;;;;;;;;4954288;28;20047;-62
2020/12/22 14:05:02;;;;;;;15.48;4.05;;;;;;;;;;4964617;28;20082;-61
2020/12/22 14:07:28;;;;;;;11.90;3.38;;;;;;;;;;4924482;28;20044;-61
2020/12/22 14:09:57;;;;;;;15.85;3.22;;;;;;;;;;4949922;28;20044;-61
2020/12/22 14:12:25;;;;;;;12.02;3.25;;;;;;;;;;4953554;28;20043;-61
2020/12/22 14:14:51;;;;;;;12.20;3.53;;;;;;;;;;4962183;28;20054;-62
2020/12/22 14:17:17;;;;;;;13.02;3.67;;;;;;;;;;4940705;28;20079;-63
2020/12/22 14:19:44;;;;;;;9.38;3.05;;;;;;;;;;4960222;28;20035;-62
2020/12/22 14:22:10;;;;;;;14.82;3.83;;;;;;;;;;4950925;28;20040;-60
2020/12/22 14:24:36;;;;;;;19.00;4.32;;;;;;;;;;4935350;29;20103;-61
2020/12/22 14:27:02;;;;;;;17.65;3.35;;;;;;;;;;4912381;29;20063;-60
2020/12/22 14:29:30;;;;;;;9.93;2.60;;;;;;;;;;4920642;29;20048;-60
2020/12/22 14:31:57;;;;;;;11.00;2.83;;;;;;;;;;4907858;29;20043;-61
2020/12/22 14:34:26;;;;;;;18.08;2.88;;;;;;;;;;4910895;29;20043;-60
2020/12/22 14:36:54;;;;;;;13.20;2.42;;;;;;;;;;4909061;29;20078;-61
2020/12/22 14:39:28;;;;;;;18.50;2.67;;;;;;;;;;4927995;28;20047;-61
2020/12/22 14:41:59;;;;;;;14.27;2.50;;;;;;;;;;4909604;29;20059;-60
2020/12/22 14:44:28;;;;;;;12.68;2.70;;;;;;;;;;4902712;29;20063;-61